Time;durP1;ratioP1;P1;durP2;ratioP2;P2;SDS_P1;SDS_P2;PMS_P1;PMS_P2;Temp;Humidity;BMP_temperature;BMP_pressure;BME280_temperature;BME280_humidity;BME280_pressure;Samples;Min_cycle;Max_cycle;Signal;HPM_P1;HPM_P2
2022/09/27 00:01:35;;;;;;;14.30;3.85;;;10.20;99.90;;;10.03;100.00;98943.16;4981839;28;20239;-66
2022/09/27 00:04:03;;;;;;;13.73;4.20;;;10.10;99.90;;;10.03;100.00;98944.03;4970613;28;20695;-65
2022/09/27 00:06:32;;;;;;;13.68;4.25;;;10.20;99.90;;;10.05;100.00;98944.91;4968236;28;20215;-65
2022/09/27 00:09:04;;;;;;;13.75;3.95;;;10.20;99.90;;;10.09;100.00;98954.53;4959305;28;20204;-66
2022/09/27 00:11:38;;;;;;;12.43;3.55;;;10.20;99.90;;;10.08;100.00;98967.75;4985911;28;20211;-66
2022/09/27 00:14:08;;;;;;;16.45;5.10;;;10.20;99.90;;;10.08;100.00;98955.44;4986186;28;20253;-66
2022/09/27 00:16:38;;;;;;;11.82;3.28;;;10.20;99.90;;;10.14;100.00;98972.97;4969869;28;20214;-65
2022/09/27 00:19:15;;;;;;;13.75;4.32;;;10.20;99.90;;;10.11;100.00;98968.59;4970157;28;20204;-65
2022/09/27 00:21:45;;;;;;;14.90;5.25;;;10.30;99.90;;;10.12;100.00;98972.09;4965443;28;20231;-65
2022/09/27 00:24:16;;;;;;;13.30;3.72;;;10.30;99.90;;;10.15;100.00;98970.31;4995961;28;20231;-65
2022/09/27 00:26:46;;;;;;;14.00;3.83;;;10.30;99.90;;;10.16;100.00;98969.41;4965772;28;20199;-65
2022/09/27 00:29:16;;;;;;;17.73;5.63;;;10.30;99.90;;;10.12;100.00;98969.47;4988611;28;20226;-65
2022/09/27 00:31:44;;;;;;;15.57;4.22;;;10.20;99.90;;;10.13;100.00;98965.94;4955552;28;20206;-65
2022/09/27 00:34:21;;;;;;;16.70;4.75;;;10.20;99.90;;;10.12;100.00;98957.13;4951912;28;20250;-65
2022/09/27 00:36:50;;;;;;;15.15;4.95;;;9.30;99.90;;;10.12;100.00;98956.25;4965468;28;20897;-65
2022/09/27 00:39:18;;;;;;;14.10;3.75;;;10.20;99.90;;;10.12;100.00;98958.91;4984208;28;20275;-65
2022/09/27 00:41:46;;;;;;;15.65;4.30;;;10.30;99.90;;;10.11;100.00;98959.78;4967052;28;20690;-65
2022/09/27 00:44:27;;;;;;;17.52;4.90;;;10.20;99.90;;;10.07;100.00;98951.03;4945573;28;20223;-66
2022/09/27 00:47:08;;;;;;;17.55;5.03;;;10.20;99.90;;;10.08;100.00;98938.69;4992505;28;20203;-65
2022/09/27 00:49:50;;;;;;;14.30;3.85;;;10.20;99.90;;;10.07;100.00;98950.16;4969173;28;20211;-65
2022/09/27 00:52:47;;;;;;;16.13;4.35;;;10.20;99.90;;;10.07;100.00;98944.88;4974130;28;20204;-66
2022/09/27 00:55:20;;;;;;;15.48;3.95;;;10.20;99.90;;;10.06;100.00;98938.72;4987132;28;20207;-65
2022/09/27 00:57:49;;;;;;;12.55;4.47;;;10.20;99.90;;;10.08;100.00;98952.78;4951857;28;20214;-66
2022/09/27 01:00:17;;;;;;;10.45;3.17;;;10.20;99.90;;;10.06;100.00;98936.09;5003642;28;20604;-65
2022/09/27 01:02:50;;;;;;;14.70;4.35;;;10.20;99.90;;;10.06;100.00;98932.56;4969736;28;20211;-65
2022/09/27 01:05:22;;;;;;;14.73;4.50;;;10.20;99.90;;;10.07;100.00;98939.59;4967743;28;20214;-65
2022/09/27 01:07:50;;;;;;;17.45;5.05;;;10.20;99.90;;;10.07;100.00;98934.31;4970179;28;20211;-65
2022/09/27 01:10:19;;;;;;;13.25;3.70;;;10.20;99.90;;;10.06;100.00;98940.50;4978117;28;20597;-66
2022/09/27 01:13:05;;;;;;;19.77;6.13;;;10.20;99.90;;;10.07;100.00;98923.75;4967283;28;20211;-65
2022/09/27 01:16:03;;;;;;;16.98;5.03;;;10.20;99.90;;;10.06;100.00;98917.59;4981005;28;20204;-65
2022/09/27 01:19:08;;;;;;;12.13;3.42;;;10.20;99.90;;;10.09;100.00;98911.41;4983623;28;20214;-65
2022/09/27 01:22:12;;;;;;;15.45;4.22;;;10.20;99.90;;;10.09;100.00;98903.47;4969202;28;20255;-65
2022/09/27 01:25:29;;;;;;;16.65;4.95;;;10.20;99.90;;;10.14;100.00;98885.81;4978657;28;20694;-65
2022/09/27 01:28:15;;;;;;;14.02;4.20;;;10.20;99.90;;;10.15;100.00;98859.38;4967872;28;20207;-66
2022/09/27 01:31:04;;;;;;;17.48;4.85;;;10.20;99.90;;;10.18;100.00;98846.13;4984050;28;20211;-65
2022/09/27 01:33:48;;;;;;;14.35;3.75;;;10.20;99.90;;;10.20;100.00;98833.78;4997709;28;20245;-65
2022/09/27 01:36:25;;;;;;;14.20;3.80;;;10.20;99.90;;;10.19;100.00;98824.09;4986691;28;20211;-65
2022/09/27 01:39:07;;;;;;;14.75;4.15;;;10.20;99.90;;;10.19;100.00;98808.22;4969824;28;20203;-65
2022/09/27 01:42:21;;;;;;;15.23;4.30;;;10.20;99.90;;;10.17;100.00;98801.22;4989434;28;20227;-66
2022/09/27 01:45:08;;;;;;;18.90;5.90;;;10.20;99.90;;;10.20;100.00;98798.56;4970292;28;20226;-66
2022/09/27 01:48:06;;;;;;;15.65;4.18;;;10.20;99.90;;;10.22;100.00;98795.00;4978144;28;20216;-65
2022/09/27 01:51:17;;;;;;;14.27;4.18;;;10.30;99.90;;;10.21;100.00;98789.75;4983876;28;20207;-66
2022/09/27 01:53:51;;;;;;;14.48;4.00;;;10.20;99.90;;;10.25;100.00;98794.09;4950929;28;20231;-65
2022/09/27 01:56:47;;;;;;;14.80;4.30;;;10.30;99.90;;;10.25;100.00;98788.81;4981189;28;20709;-66
2022/09/27 01:59:33;;;;;;;15.88;4.65;;;10.30;99.90;;;10.23;100.00;98791.47;4992820;28;20215;-65
2022/09/27 02:02:16;;;;;;;16.50;4.57;;;10.30;99.90;;;10.29;100.00;98784.34;4972764;28;20227;-66
2022/09/27 02:05:16;;;;;;;15.57;4.20;;;10.30;99.90;;;10.27;100.00;98787.88;4966017;28;20214;-65
2022/09/27 02:07:51;;;;;;;17.65;4.70;;;10.30;99.90;;;10.30;100.00;98792.25;4984703;28;20211;-66
2022/09/27 02:10:24;;;;;;;14.13;3.75;;;10.30;99.90;;;10.29;100.00;98779.06;4964278;28;20575;-66
2022/09/27 02:13:13;;;;;;;19.08;6.25;;;10.30;99.90;;;10.34;100.00;98787.78;4966946;28;20211;-65
2022/09/27 02:16:24;;;;;;;19.38;5.38;;;10.30;99.90;;;10.30;100.00;98783.44;4968075;28;20208;-65
2022/09/27 02:19:09;;;;;;;15.13;4.57;;;10.30;99.90;;;10.38;100.00;98785.06;4999073;28;20200;-66
2022/09/27 02:22:05;;;;;;;15.40;4.00;;;10.30;99.90;;;10.39;100.00;98781.53;4989007;28;20231;-65
2022/09/27 02:25:06;;;;;;;15.48;4.25;;;10.40;99.90;;;10.41;100.00;98792.09;4978029;28;20224;-65
2022/09/27 02:27:45;;;;;;;15.13;4.20;;;10.40;99.90;;;10.39;100.00;98794.75;4996159;28;20215;-66
2022/09/27 02:30:14;;;;;;;17.35;4.95;;;10.40;99.90;;;10.40;100.00;98799.16;4999007;28;20218;-66
2022/09/27 02:32:46;;;;;;;20.30;6.07;;;10.40;99.90;;;10.40;100.00;98796.53;4964194;28;20215;-66
2022/09/27 02:35:19;;;;;;;19.90;5.75;;;10.40;99.90;;;10.39;100.00;98797.38;4950159;28;20337;-66
2022/09/27 02:37:48;;;;;;;16.85;4.47;;;10.40;99.90;;;10.40;100.00;98800.91;4976391;28;20555;-66
2022/09/27 02:40:17;;;;;;;13.07;3.85;;;10.40;99.90;;;10.39;100.00;98807.94;4988286;28;20203;-66
2022/09/27 02:42:45;;;;;;;14.02;3.72;;;10.40;99.90;;;10.39;100.00;98809.72;4978936;28;20235;-66
2022/09/27 02:45:16;;;;;;;9.57;3.28;;;10.40;99.90;;;10.36;100.00;98812.41;4972624;28;20236;-66
2022/09/27 02:48:40;;;;;;;16.35;4.63;;;10.40;99.90;;;10.41;100.00;98824.69;4991798;28;20235;-66
2022/09/27 02:51:46;;;;;;;13.65;3.65;;;10.40;99.90;;;10.40;100.00;98832.59;4987575;28;20203;-65
2022/09/27 02:54:28;;;;;;;14.00;3.70;;;10.40;99.90;;;10.38;100.00;98837.03;4993864;28;20222;-65
2022/09/27 02:57:46;;;;;;;15.73;4.15;;;10.40;99.90;;;10.36;100.00;98838.84;4971013;28;20218;-65
2022/09/27 03:01:05;;;;;;;8.98;2.67;;;10.40;99.90;;;10.35;100.00;98837.97;4982258;28;20234;-65
2022/09/27 03:04:41;;;;;;;13.48;3.90;;;10.50;99.90;;;10.26;100.00;98852.19;4925430;29;20253;-66
2022/09/27 03:07:10;;;;;;;15.23;4.53;;;10.40;99.90;;;10.25;100.00;98855.72;4840277;29;20209;-66
2022/09/27 03:09:52;;;;;;;14.23;4.32;;;10.30;99.90;;;10.24;100.00;98875.13;4962152;28;20210;-66
2022/09/27 03:12:26;;;;;;;10.95;3.08;;;10.40;99.90;;;10.26;100.00;98883.00;4966099;28;20211;-66
2022/09/27 03:14:59;;;;;;;15.18;4.55;;;10.40;99.90;;;10.29;100.00;98885.63;4975754;28;20227;-66
2022/09/27 03:18:04;;;;;;;12.85;3.65;;;10.40;99.90;;;10.28;100.00;98886.50;4960053;28;20216;-66
2022/09/27 03:20:53;;;;;;;9.25;2.80;;;10.40;99.90;;;10.33;100.00;98884.69;4994405;28;20218;-66
2022/09/27 03:23:23;;;;;;;11.30;3.22;;;10.40;99.90;;;10.34;100.00;98886.41;4966654;28;20246;-66
2022/09/27 03:25:51;;;;;;;9.35;2.70;;;10.40;99.90;;;10.34;100.00;98888.19;5002985;28;20219;-66
2022/09/27 03:28:19;;;;;;;11.98;3.50;;;10.40;99.90;;;10.29;100.00;98885.63;4974589;28;20635;-66
2022/09/27 03:30:48;;;;;;;13.48;3.92;;;10.40;99.90;;;10.34;100.00;98883.78;4997867;28;20211;-66
2022/09/27 03:33:35;;;;;;;14.85;4.13;;;10.40;99.90;;;10.31;100.00;98883.81;4991114;28;20231;-66
2022/09/27 03:36:09;;;;;;;14.80;4.07;;;10.30;99.90;;;10.33;100.00;98871.47;4986161;28;20203;-66
2022/09/27 03:38:42;;;;;;;14.63;4.63;;;10.30;99.90;;;10.27;100.00;98879.47;4981001;28;20222;-66
2022/09/27 03:41:24;;;;;;;15.85;4.95;;;10.30;99.90;;;10.37;100.00;98883.72;4985054;28;20482;-66
2022/09/27 03:43:56;;;;;;;15.02;4.10;;;10.30;99.90;;;10.34;100.00;98878.50;4970651;28;20262;-66
2022/09/27 03:46:25;;;;;;;15.43;4.63;;;10.30;99.90;;;10.37;100.00;98881.09;4999964;28;20218;-67
2022/09/27 03:48:54;;;;;;;14.27;4.13;;;10.40;99.90;;;10.33;100.00;98881.16;4986583;28;20211;-66
2022/09/27 03:51:22;;;;;;;8.65;2.50;;;10.30;99.90;;;10.26;100.00;98883.88;4982528;28;20204;-66
2022/09/27 03:53:50;;;;;;;26.05;7.40;;;10.30;99.90;;;10.26;100.00;98883.88;4966807;28;20365;-66
2022/09/27 03:56:19;;;;;;;15.40;4.13;;;10.30;99.90;;;10.28;100.00;98886.50;4978584;28;20579;-66
2022/09/27 03:58:47;;;;;;;17.60;4.80;;;10.30;99.90;;;10.27;100.00;98885.63;4977901;28;20230;-66
2022/09/27 04:01:17;;;;;;;11.38;3.13;;;10.30;99.90;;;10.27;100.00;98882.13;4968135;28;20204;-66
2022/09/27 04:03:48;;;;;;;16.98;4.78;;;9.80;99.90;;;10.25;100.00;98883.91;4982778;28;20227;-67
2022/09/27 04:06:40;;;;;;;18.85;5.25;;;10.30;99.90;;;10.16;100.00;98884.88;4975248;28;20266;-67
2022/09/27 04:09:21;;;;;;;7.72;2.20;;;10.30;99.90;;;10.21;100.00;98891.00;4984745;28;20215;-66
2022/09/27 04:12:03;;;;;;;17.90;5.10;;;10.30;99.90;;;10.16;100.00;98894.56;4979326;28;20199;-67
2022/09/27 04:14:32;;;;;;;12.57;3.50;;;10.30;99.90;;;10.17;100.00;98891.03;4967288;28;20228;-66
2022/09/27 04:17:36;;;;;;;13.88;3.88;;;10.20;99.90;;;10.15;100.00;98900.75;4988600;28;20864;-66
2022/09/27 04:20:30;;;;;;;20.80;5.95;;;10.20;99.90;;;10.17;100.00;98893.69;4940163;28;20208;-67
2022/09/27 04:23:00;;;;;;;25.55;7.10;;;10.20;99.90;;;10.15;100.00;98900.75;4972670;28;20235;-67
2022/09/27 04:25:28;;;;;;;13.98;3.75;;;10.20;99.90;;;10.12;100.00;98909.59;4971728;28;20215;-67
2022/09/27 04:28:01;;;;;;;21.17;5.25;;;10.20;99.90;;;10.12;100.00;98906.06;4975661;28;20199;-67
2022/09/27 04:30:29;;;;;;;15.73;4.05;;;10.20;99.90;;;10.11;100.00;98894.63;5001753;28;20208;-67
2022/09/27 04:33:26;;;;;;;25.75;6.20;;;10.10;99.90;;;10.10;100.00;98913.16;4972977;28;20240;-67
2022/09/27 04:38:59;;;;;;;19.88;5.40;;;10.10;99.90;;;10.09;100.00;98908.75;4965918;28;20208;-67
2022/09/27 04:41:28;;;;;;;13.95;4.03;;;10.10;99.90;;;10.08;100.00;98912.28;4994359;28;20238;-67
2022/09/27 04:44:00;;;;;;;14.73;3.90;;;10.10;99.90;;;10.09;100.00;98908.75;4970953;28;20254;-67
2022/09/27 04:46:30;;;;;;;14.48;3.95;;;10.10;99.90;;;10.08;100.00;98909.66;4964375;28;20210;-67
2022/09/27 04:49:00;;;;;;;12.35;3.33;;;10.10;99.90;;;10.04;100.00;98906.19;4972122;28;20664;-67
2022/09/27 04:51:29;;;;;;;13.77;3.75;;;10.10;99.90;;;10.04;100.00;98905.31;4978910;28;20208;-67
2022/09/27 04:53:57;;;;;;;19.23;4.93;;;10.10;99.90;;;10.07;100.00;98903.50;4962122;28;20254;-67
2022/09/27 04:56:29;;;;;;;11.13;2.92;;;10.10;99.90;;;10.06;100.00;98900.88;4993794;28;20222;-66
2022/09/27 04:58:57;;;;;;;15.60;3.95;;;10.10;99.90;;;10.03;100.00;98904.44;4986545;28;20199;-67
2022/09/27 05:01:25;;;;;;;25.23;6.70;;;10.10;99.90;;;10.02;100.00;98902.69;4976310;28;20250;-67
2022/09/27 05:03:59;;;;;;;14.90;3.90;;;10.10;99.90;;;9.94;100.00;98904.56;5003662;28;20227;-67
2022/09/27 05:06:29;;;;;;;7.38;2.15;;;10.00;99.90;;;9.99;100.00;98915.94;4990967;28;20210;-67
2022/09/27 05:09:04;;;;;;;14.68;3.95;;;10.00;99.90;;;9.95;100.00;98925.66;4975842;28;20546;-67
2022/09/27 05:11:41;;;;;;;13.13;3.78;;;10.00;99.90;;;9.97;100.00;98935.34;4977857;28;20214;-67
2022/09/27 05:14:27;;;;;;;16.45;4.38;;;10.00;99.90;;;9.92;100.00;98932.75;4992135;28;20222;-67
2022/09/27 05:17:08;;;;;;;16.00;4.05;;;10.00;99.90;;;9.97;100.00;98946.75;4979408;28;20210;-66
2022/09/27 05:19:55;;;;;;;16.70;4.30;;;10.00;99.90;;;9.95;100.00;98954.72;4988742;28;20210;-67
2022/09/27 05:22:39;;;;;;;18.17;4.68;;;10.00;99.90;;;9.97;100.00;98956.47;4985454;28;20230;-66
2022/09/27 05:25:08;;;;;;;16.35;4.35;;;10.00;99.90;;;9.95;100.00;98959.13;4986279;28;20592;-66
2022/09/27 05:27:36;;;;;;;17.08;4.32;;;10.00;99.90;;;9.95;100.00;98965.28;4978402;28;20203;-67
2022/09/27 05:30:07;;;;;;;16.17;4.10;;;10.00;99.90;;;9.94;100.00;98965.28;4976830;28;20219;-67
2022/09/27 05:32:55;;;;;;;15.68;4.03;;;10.00;99.90;;;9.89;100.00;98975.91;4996883;28;20214;-67
2022/09/27 05:35:26;;;;;;;15.13;3.97;;;9.90;99.90;;;9.91;100.00;98982.03;4994750;28;20215;-67
2022/09/27 05:37:59;;;;;;;16.95;4.47;;;10.00;99.90;;;9.93;100.00;98982.91;4998967;28;20215;-67
2022/09/27 05:40:30;;;;;;;17.65;4.63;;;10.00;99.90;;;9.94;100.00;98994.34;4978819;28;20680;-67
2022/09/27 05:43:14;;;;;;;14.95;4.03;;;10.00;99.90;;;9.93;100.00;98985.53;4951333;28;20235;-67
2022/09/27 05:45:43;;;;;;;16.67;4.28;;;10.00;99.90;;;9.95;100.00;99001.38;4981074;28;20207;-67
2022/09/27 05:48:13;;;;;;;16.45;4.22;;;10.00;99.90;;;9.95;100.00;98999.59;4970284;28;20203;-66
2022/09/27 05:51:03;;;;;;;15.93;4.35;;;10.00;99.90;;;10.01;100.00;99000.41;4986912;28;20212;-66
2022/09/27 05:53:33;;;;;;;15.70;4.15;;;10.00;99.90;;;9.99;100.00;99005.72;4993092;28;20230;-67
2022/09/27 05:56:04;;;;;;;13.63;3.72;;;10.00;99.90;;;9.98;100.00;99005.72;4974710;28;20200;-66
2022/09/27 05:59:02;;;;;;;10.82;3.03;;;10.00;99.90;;;9.99;100.00;99002.19;4989727;28;20242;-64
2022/09/27 06:01:47;;;;;;;18.38;4.93;;;10.00;99.90;;;9.98;100.00;99008.38;4975726;28;20227;-64
2022/09/27 06:04:38;;;;;;;16.92;4.40;;;10.00;99.90;;;10.04;100.00;99005.66;4996874;28;20243;-64
2022/09/27 06:07:31;;;;;;;16.90;4.47;;;10.00;99.90;;;10.11;100.00;98991.50;4980348;28;20230;-64
2022/09/27 06:10:00;;;;;;;15.50;4.18;;;10.10;99.90;;;10.10;100.00;98993.25;4977080;28;20675;-64
2022/09/27 06:12:28;;;;;;;16.35;4.25;;;10.10;99.90;;;10.06;100.00;98993.31;4970469;28;20207;-64
2022/09/27 06:14:56;;;;;;;14.65;3.92;;;10.10;99.90;;;10.05;100.00;98999.50;4981944;28;20235;-64
2022/09/27 06:17:34;;;;;;;15.45;4.13;;;10.10;99.90;;;10.05;100.00;99016.22;4964108;28;20203;-64
2022/09/27 06:20:09;;;;;;;15.02;3.95;;;10.10;99.90;;;10.15;100.00;99009.94;5004001;28;20219;-64
2022/09/27 06:22:37;;;;;;;16.35;4.35;;;10.10;99.90;;;10.09;100.00;99009.13;4977936;28;20199;-65
2022/09/27 06:25:06;;;;;;;14.05;3.72;;;10.10;99.90;;;10.05;100.00;99018.84;4996849;28;20264;-64
2022/09/27 06:27:42;;;;;;;15.88;4.32;;;10.10;99.90;;;10.07;100.00;99017.06;4981137;28;20204;-64
2022/09/27 06:30:20;;;;;;;15.13;4.05;;;10.10;99.90;;;10.11;100.00;99024.06;4977277;28;20191;-64
2022/09/27 06:33:00;;;;;;;16.08;4.18;;;10.10;99.90;;;10.17;100.00;99024.00;4994897;28;20200;-65
2022/09/27 06:35:44;;;;;;;16.10;4.18;;;9.50;99.90;;;10.17;100.00;99024.00;4973723;28;20203;-64
2022/09/27 06:38:15;;;;;;;17.08;4.45;;;10.20;99.90;;;10.18;100.00;99030.16;4996546;28;20628;-64
2022/09/27 06:40:50;;;;;;;13.88;3.78;;;10.20;99.90;;;10.21;100.00;99024.88;4986091;28;20203;-65
2022/09/27 06:43:41;;;;;;;13.75;3.75;;;10.20;99.90;;;10.21;100.00;99031.03;5014400;28;20227;-64
2022/09/27 06:46:29;;;;;;;15.52;4.18;;;10.20;99.90;;;10.27;100.00;99043.28;4988774;28;20214;-64
2022/09/27 06:49:15;;;;;;;13.30;3.70;;;10.30;99.90;;;10.27;100.00;99035.34;4986757;28;20562;-64
2022/09/27 06:51:44;;;;;;;11.88;3.38;;;10.30;99.90;;;10.29;100.00;99044.13;4968976;28;21933;-64
2022/09/27 06:54:12;;;;;;;13.52;3.65;;;10.30;99.90;;;10.30;100.00;99051.16;4984852;28;20243;-64
2022/09/27 06:56:40;;;;;;;14.00;4.22;;;10.30;99.90;;;10.31;100.00;99044.13;4961278;28;20211;-64
2022/09/27 07:02:12;;;;;;;12.60;3.60;;;10.40;99.90;;;10.34;100.00;99052.88;5006951;28;20211;-67
2022/09/27 07:05:17;;;;;;;12.85;3.65;;;10.40;99.90;;;10.36;100.00;99053.75;4954400;28;20691;-67
2022/09/27 07:08:01;;;;;;;14.40;3.97;;;10.40;99.90;;;10.42;100.00;99066.03;4990980;28;20215;-66
2022/09/27 07:10:35;;;;;;;16.08;4.43;;;10.40;99.90;;;10.44;100.00;99074.81;4991849;28;20222;-67
2022/09/27 07:13:07;;;;;;;16.73;4.40;;;10.50;99.90;;;10.47;100.00;99075.66;4987999;28;20246;-67
2022/09/27 07:15:37;;;;;;;27.52;7.55;;;10.50;99.90;;;10.52;100.00;99088.81;5000545;28;20206;-67
2022/09/27 07:18:08;;;;;;;15.70;4.40;;;10.50;99.90;;;10.50;100.00;99093.25;4995001;28;20579;-66
2022/09/27 07:20:37;;;;;;;14.23;3.97;;;10.50;99.90;;;10.53;100.00;99109.06;4988390;28;20208;-66
2022/09/27 07:23:08;;;;;;;13.02;3.83;;;10.50;99.90;;;10.54;100.00;99090.53;5010309;28;20243;-66
2022/09/27 07:25:37;;;;;;;13.32;3.72;;;10.50;99.90;;;10.61;100.00;99103.69;4996493;28;20215;-67
2022/09/27 07:28:08;;;;;;;13.63;3.83;;;10.60;99.90;;;10.65;100.00;99106.28;4992166;28;20200;-67
2022/09/27 07:30:37;;;;;;;12.88;3.80;;;10.60;99.90;;;10.63;100.00;99092.19;5004537;28;20211;-67
2022/09/27 07:33:05;;;;;;;14.88;4.20;;;10.70;99.90;;;10.61;100.00;99074.59;4977906;28;20219;-67
2022/09/27 07:35:38;;;;;;;11.32;3.33;;;10.70;99.90;;;10.63;100.00;99080.75;4978337;28;20210;-67
2022/09/27 07:38:08;;;;;;;11.95;3.55;;;10.70;99.90;;;10.58;100.00;99089.59;4981575;28;20200;-67
2022/09/27 07:40:36;;;;;;;14.45;4.03;;;10.60;99.90;;;10.59;100.00;99103.69;5005930;28;20214;-67
2022/09/27 07:43:05;;;;;;;14.00;3.85;;;10.60;99.90;;;10.56;100.00;99112.53;4979355;28;20233;-67
2022/09/27 07:45:35;;;;;;;15.02;4.30;;;10.60;99.90;;;10.63;100.00;99123.91;4980882;28;20231;-66
2022/09/27 07:48:23;;;;;;;14.98;4.13;;;10.70;99.90;;;10.68;100.00;99108.00;4976737;28;20232;-67
2022/09/27 07:51:16;;;;;;;14.45;4.00;;;10.70;99.90;;;10.70;100.00;99104.44;4998995;28;20210;-67
2022/09/27 07:54:00;;;;;;;9.57;2.80;;;10.80;99.90;;;10.70;100.00;99107.09;5005702;28;20219;-66
2022/09/27 07:56:54;;;;;;;16.58;4.70;;;10.80;99.90;;;10.70;100.00;99099.16;4982732;28;20207;-67
2022/09/27 07:59:23;;;;;;;12.10;3.58;;;10.80;99.90;;;10.78;100.00;99113.16;4999743;28;20204;-67
2022/09/27 08:01:52;;;;;;;10.23;2.90;;;10.80;99.90;;;10.77;100.00;99110.53;5022889;28;20218;-66
2022/09/27 08:04:21;;;;;;;15.70;4.38;;;10.90;99.90;;;10.84;100.00;99114.84;4960553;28;20963;-67
2022/09/27 08:06:49;;;;;;;15.00;4.25;;;10.90;99.90;;;10.88;100.00;99129.78;4978626;28;20213;-67
2022/09/27 08:09:17;;;;;;;15.77;4.28;;;11.00;99.90;;;10.75;100.00;99114.97;4989590;28;20560;-68
2022/09/27 08:11:46;;;;;;;13.90;3.88;;;10.90;99.90;;;10.87;100.00;99130.66;4975383;28;20207;-67
2022/09/27 08:14:14;;;;;;;12.50;3.53;;;11.00;99.90;;;10.95;100.00;99147.31;4994945;28;20230;-67
2022/09/27 08:16:45;;;;;;;13.27;3.65;;;11.00;99.90;;;11.00;100.00;99137.53;4986170;28;20212;-68
2022/09/27 08:19:13;;;;;;;14.25;3.88;;;11.00;99.90;;;11.17;100.00;99150.53;4980205;28;20235;-67
2022/09/27 08:21:42;;;;;;;16.15;4.47;;;11.10;99.90;;;11.32;100.00;99158.25;5003276;28;20627;-68
2022/09/27 08:24:22;;;;;;;16.10;4.22;;;11.30;99.90;;;11.44;100.00;99157.22;4981326;28;20223;-67
2022/09/27 08:27:09;;;;;;;16.98;4.57;;;11.40;99.90;;;11.65;100.00;99166.59;5003604;28;20562;-67
2022/09/27 08:29:47;;;;;;;10.05;2.88;;;11.60;99.90;;;11.88;100.00;99177.75;5003776;28;20203;-67
2022/09/27 08:32:16;;;;;;;10.82;2.97;;;11.70;99.90;;;11.86;100.00;99147.78;4979593;28;20196;-67
2022/09/27 08:34:50;;;;;;;16.27;4.78;;;11.80;99.90;;;11.97;100.00;99152.91;4975372;28;20234;-67
2022/09/27 08:37:22;;;;;;;15.30;4.25;;;12.70;99.90;;;12.16;100.00;99165.78;5016997;28;20200;-67
2022/09/27 08:39:51;;;;;;;11.45;3.25;;;12.10;99.90;;;12.27;100.00;99131.16;4977490;28;20215;-67
2022/09/27 08:42:52;;;;;;;17.02;4.85;;;12.20;99.90;;;12.02;100.00;99080.38;4975708;28;20686;-67
2022/09/27 08:45:41;;;;;;;13.82;3.85;;;12.20;99.90;;;12.00;100.00;99097.22;4967143;28;20223;-67
2022/09/27 08:48:11;;;;;;;14.05;4.00;;;12.10;99.90;;;11.96;100.00;99103.47;4963801;28;20222;-67
2022/09/27 08:50:43;;;;;;;15.18;4.28;;;12.10;99.90;;;11.90;100.00;99072.66;4980645;28;20636;-67
2022/09/27 08:53:13;;;;;;;16.45;4.50;;;12.00;99.90;;;12.01;100.00;99096.31;5010292;28;20695;-67
2022/09/27 08:55:54;;;;;;;14.90;4.20;;;12.10;99.90;;;12.46;100.00;99142.28;4991224;28;20687;-67
2022/09/27 08:58:32;;;;;;;16.13;4.50;;;12.30;99.90;;;12.46;100.00;99121.94;4990434;28;20214;-67
2022/09/27 09:01:09;;;;;;;14.52;4.07;;;12.50;99.90;;;12.44;100.00;99114.91;5003538;28;20403;-68
2022/09/27 09:03:56;;;;;;;10.55;3.05;;;12.50;99.90;;;12.14;100.00;99073.97;4963305;28;20242;-67
2022/09/27 09:06:45;;;;;;;15.23;4.32;;;12.40;99.90;;;12.03;100.00;99055.63;4994182;28;20202;-67
2022/09/27 09:09:41;;;;;;;14.48;4.20;;;12.30;99.90;;;11.96;100.00;99056.66;4983023;28;20203;-67
2022/09/27 09:12:46;;;;;;;13.95;4.03;;;12.30;99.90;;;11.87;100.00;99042.69;4996392;28;20197;-67
2022/09/27 09:16:21;;;;;;;14.60;4.03;;;12.20;99.90;;;11.87;100.00;99062.13;4977229;28;20211;-67
2022/09/27 09:19:02;;;;;;;13.43;3.80;;;12.10;99.90;;;11.81;100.00;99059.56;5004947;28;20217;-67
2022/09/27 09:22:23;;;;;;;13.93;3.95;;;12.00;99.90;;;11.90;100.00;99066.47;5006913;28;20831;-67
2022/09/27 09:25:21;;;;;;;11.63;3.45;;;12.10;99.90;;;11.74;100.00;99053.47;4997722;28;20223;-67
2022/09/27 09:28:29;;;;;;;10.65;3.20;;;12.00;99.90;;;11.85;100.00;99051.56;5013469;28;20218;-67
2022/09/27 09:31:20;;;;;;;12.32;3.70;;;12.00;99.90;;;11.74;100.00;99048.19;5013551;28;20532;-67
2022/09/27 09:33:58;;;;;;;13.82;4.05;;;12.00;99.90;;;11.83;100.00;99071.91;4991547;28;20234;-67
2022/09/27 09:36:42;;;;;;;14.02;4.22;;;12.00;99.90;;;11.84;100.00;99057.75;5002364;28;20223;-67
2022/09/27 09:39:17;;;;;;;15.00;4.25;;;12.00;99.90;;;11.95;100.00;99070.78;4966445;28;20231;-67
2022/09/27 09:42:18;;;;;;;12.85;3.75;;;12.10;99.90;;;11.73;100.00;99046.44;5012106;28;20226;-67
2022/09/27 09:45:40;;;;;;;13.35;3.83;;;12.10;99.90;;;11.76;100.00;99050.81;4963197;28;20254;-67
2022/09/27 09:48:28;;;;;;;15.65;4.45;;;12.00;99.90;;;11.68;100.00;99036.78;4969018;28;20222;-67
2022/09/27 09:51:00;;;;;;;14.18;3.95;;;11.90;99.90;;;11.55;100.00;99020.25;4980550;28;20210;-67
2022/09/27 09:53:45;;;;;;;14.98;4.25;;;11.80;99.90;;;11.37;100.00;99018.78;4993117;28;20235;-67
2022/09/27 09:56:30;;;;;;;9.55;2.75;;;11.80;99.90;;;11.19;100.00;99013.81;4991714;28;20204;-67
2022/09/27 09:59:14;;;;;;;14.73;4.40;;;11.60;99.90;;;11.21;100.00;99049.06;5010358;28;20208;-67
2022/09/27 10:01:47;;;;;;;19.45;5.90;;;11.60;99.90;;;11.07;100.00;99057.19;4978555;28;20594;-67
2022/09/27 10:04:34;;;;;;;13.63;4.18;;;11.50;99.90;;;10.84;100.00;99038.16;4996326;28;20682;-67
2022/09/27 10:07:02;;;;;;;15.30;4.40;;;11.30;99.90;;;10.90;100.00;99059.22;4989614;28;20203;-67
2022/09/27 10:09:35;;;;;;;12.55;3.63;;;11.20;99.90;;;10.89;100.00;99068.06;4981621;28;20223;-66
2022/09/27 10:12:36;;;;;;;14.38;3.97;;;11.30;99.90;;;10.94;100.00;99086.50;4973133;28;20214;-67
2022/09/27 10:15:06;;;;;;;14.57;4.43;;;11.30;99.90;;;10.69;100.00;99048.94;4976772;28;20234;-67
2022/09/27 10:17:45;;;;;;;14.60;4.32;;;11.10;99.90;;;10.78;100.00;99047.03;4970651;28;20215;-67
2022/09/27 10:20:29;;;;;;;15.45;4.47;;;11.10;99.90;;;10.80;100.00;99039.97;4979982;28;20210;-68
2022/09/27 10:23:11;;;;;;;16.10;4.60;;;11.10;99.90;;;10.99;100.00;99067.03;4971298;28;20203;-67
2022/09/27 10:26:03;;;;;;;14.65;4.15;;;11.20;99.90;;;11.03;100.00;99044.91;4997034;28;20227;-67
2022/09/27 10:28:38;;;;;;;15.25;4.43;;;11.20;99.90;;;11.09;100.00;99049.25;4988598;28;20212;-68
2022/09/27 10:31:16;;;;;;;13.48;3.85;;;11.30;99.90;;;11.32;100.00;99073.56;4978916;28;20203;-67
2022/09/27 10:34:24;;;;;;;10.40;3.00;;;11.40;99.90;;;11.37;100.00;99055.84;4997364;28;20216;-68
2022/09/27 10:37:17;;;;;;;18.17;5.28;;;11.50;99.90;;;11.70;100.00;99096.81;4977201;28;20207;-67
2022/09/27 10:39:57;;;;;;;14.88;4.20;;;11.60;99.90;;;11.83;100.00;99071.03;4996035;28;20686;-67
2022/09/27 10:42:37;;;;;;;18.20;5.70;;;11.80;99.90;;;11.94;100.00;99070.81;4979121;28;20203;-67
2022/09/27 10:45:32;;;;;;;13.02;4.28;;;11.90;99.90;;;12.38;100.00;99102.66;4981849;28;20223;-67
2022/09/27 10:48:23;;;;;;;15.20;4.32;;;12.10;99.90;;;13.06;100.00;99108.34;4993298;28;20204;-67
2022/09/27 10:51:06;;;;;;;9.95;2.85;;;12.70;99.90;;;13.54;100.00;99086.03;4978513;28;20192;-67
2022/09/27 10:53:48;;;;;;;12.68;3.85;;;13.10;99.90;;;13.83;100.00;99064.91;4968004;28;20216;-68
2022/09/27 10:56:29;;;;;;;13.38;3.83;;;13.50;99.90;;;13.72;100.00;98996.09;4980189;28;20195;-67
2022/09/27 10:59:02;;;;;;;17.30;5.30;;;13.60;99.90;;;13.59;100.00;98977.88;4997186;28;20214;-67
2022/09/27 11:01:59;;;;;;;13.35;3.90;;;13.60;99.90;;;14.26;100.00;99034.50;4974479;28;20207;-67
2022/09/27 11:04:37;;;;;;;14.80;4.63;;;13.90;99.90;;;14.37;100.00;99001.41;4972581;28;20227;-67
2022/09/27 11:07:18;;;;;;;12.02;3.83;;;14.20;99.90;;;14.42;100.00;98988.00;4978524;28;20608;-67